sensor_id;sensor_type;location;lat;lon;timestamp;P1;durP1;ratioP1;P2;durP2;ratioP2
70337;SDS011;57757;53.198;19.646;2023-05-23T00:00:06;11.00;;;5.00;;
70337;SDS011;57757;53.198;19.646;2023-05-23T00:02:54;12.00;;;4.80;;
70337;SDS011;57757;53.198;19.646;2023-05-23T00:05:22;10.00;;;4.80;;
70337;SDS011;57757;53.198;19.646;2023-05-23T00:07:50;11.90;;;5.00;;
70337;SDS011;57757;53.198;19.646;2023-05-23T00:10:18;11.20;;;4.90;;
70337;SDS011;57757;53.198;19.646;2023-05-23T00:12:45;10.30;;;4.70;;
70337;SDS011;57757;53.198;19.646;2023-05-23T00:15:15;10.80;;;5.20;;
70337;SDS011;57757;53.198;19.646;2023-05-23T00:17:42;20.30;;;6.60;;
70337;SDS011;57757;53.198;19.646;2023-05-23T00:20:11;16.60;;;5.70;;
70337;SDS011;57757;53.198;19.646;2023-05-23T00:22:39;16.00;;;6.60;;
70337;SDS011;57757;53.198;19.646;2023-05-23T00:25:09;17.40;;;6.20;;
70337;SDS011;57757;53.198;19.646;2023-05-23T00:27:37;14.40;;;5.60;;
70337;SDS011;57757;53.198;19.646;2023-05-23T00:30:05;13.60;;;5.30;;
70337;SDS011;57757;53.198;19.646;2023-05-23T00:32:33;11.70;;;5.50;;
70337;SDS011;57757;53.198;19.646;2023-05-23T00:35:02;9.80;;;5.10;;
70337;SDS011;57757;53.198;19.646;2023-05-23T00:37:30;11.90;;;5.20;;
70337;SDS011;57757;53.198;19.646;2023-05-23T00:39:58;10.70;;;4.70;;
70337;SDS011;57757;53.198;19.646;2023-05-23T00:42:26;11.70;;;5.20;;
70337;SDS011;57757;53.198;19.646;2023-05-23T00:44:54;11.90;;;5.10;;
70337;SDS011;57757;53.198;19.646;2023-05-23T00:47:21;10.50;;;5.00;;
70337;SDS011;57757;53.198;19.646;2023-05-23T00:49:49;11.70;;;5.40;;
70337;SDS011;57757;53.198;19.646;2023-05-23T00:52:17;13.00;;;5.20;;
70337;SDS011;57757;53.198;19.646;2023-05-23T00:54:44;13.00;;;5.10;;
70337;SDS011;57757;53.198;19.646;2023-05-23T00:57:12;11.40;;;5.70;;
70337;SDS011;57757;53.198;19.646;2023-05-23T00:59:40;12.20;;;5.70;;
70337;SDS011;57757;53.198;19.646;2023-05-23T01:02:09;12.90;;;5.60;;
70337;SDS011;57757;53.198;19.646;2023-05-23T01:04:39;11.90;;;5.50;;
70337;SDS011;57757;53.198;19.646;2023-05-23T01:07:08;11.10;;;5.40;;
70337;SDS011;57757;53.198;19.646;2023-05-23T01:09:36;14.10;;;6.00;;
70337;SDS011;57757;53.198;19.646;2023-05-23T01:15:10;14.00;;;5.40;;
70337;SDS011;57757;53.198;19.646;2023-05-23T01:20:20;11.70;;;5.90;;
70337;SDS011;57757;53.198;19.646;2023-05-23T01:23:01;13.70;;;5.80;;
70337;SDS011;57757;53.198;19.646;2023-05-23T01:28:40;11.60;;;5.80;;
70337;SDS011;57757;53.198;19.646;2023-05-23T01:31:12;12.40;;;5.70;;
70337;SDS011;57757;53.198;19.646;2023-05-23T01:33:42;10.80;;;5.50;;
70337;SDS011;57757;53.198;19.646;2023-05-23T01:36:11;10.50;;;5.50;;
70337;SDS011;57757;53.198;19.646;2023-05-23T01:38:41;12.10;;;5.80;;
70337;SDS011;57757;53.198;19.646;2023-05-23T01:41:09;9.30;;;5.40;;
70337;SDS011;57757;53.198;19.646;2023-05-23T01:43:37;10.50;;;5.10;;
70337;SDS011;57757;53.198;19.646;2023-05-23T01:46:05;10.80;;;5.40;;
70337;SDS011;57757;53.198;19.646;2023-05-23T01:48:35;11.00;;;5.40;;
70337;SDS011;57757;53.198;19.646;2023-05-23T01:51:05;12.00;;;5.90;;
70337;SDS011;57757;53.198;19.646;2023-05-23T01:53:33;11.30;;;5.90;;
70337;SDS011;57757;53.198;19.646;2023-05-23T01:56:03;20.70;;;6.20;;
70337;SDS011;57757;53.198;19.646;2023-05-23T01:58:31;13.20;;;5.40;;
70337;SDS011;57757;53.198;19.646;2023-05-23T02:00:58;11.90;;;5.70;;
70337;SDS011;57757;53.198;19.646;2023-05-23T02:03:27;12.40;;;5.70;;
70337;SDS011;57757;53.198;19.646;2023-05-23T02:05:55;13.80;;;6.00;;
70337;SDS011;57757;53.198;19.646;2023-05-23T02:08:22;11.20;;;5.60;;
70337;SDS011;57757;53.198;19.646;2023-05-23T02:10:50;10.50;;;4.90;;
70337;SDS011;57757;53.198;19.646;2023-05-23T02:13:18;11.30;;;5.90;;
70337;SDS011;57757;53.198;19.646;2023-05-23T02:15:45;12.30;;;6.00;;
70337;SDS011;57757;53.198;19.646;2023-05-23T02:18:13;13.40;;;5.90;;
70337;SDS011;57757;53.198;19.646;2023-05-23T02:20:40;10.80;;;5.50;;
70337;SDS011;57757;53.198;19.646;2023-05-23T02:23:08;10.30;;;5.50;;
70337;SDS011;57757;53.198;19.646;2023-05-23T02:25:36;10.60;;;5.30;;
70337;SDS011;57757;53.198;19.646;2023-05-23T02:28:03;11.40;;;5.60;;
70337;SDS011;57757;53.198;19.646;2023-05-23T02:30:31;12.40;;;5.40;;
70337;SDS011;57757;53.198;19.646;2023-05-23T02:32:58;11.20;;;5.50;;
70337;SDS011;57757;53.198;19.646;2023-05-23T02:35:26;10.80;;;5.40;;
70337;SDS011;57757;53.198;19.646;2023-05-23T02:37:53;11.90;;;5.50;;
70337;SDS011;57757;53.198;19.646;2023-05-23T02:40:21;13.40;;;6.20;;
70337;SDS011;57757;53.198;19.646;2023-05-23T02:42:49;10.90;;;5.20;;
70337;SDS011;57757;53.198;19.646;2023-05-23T02:45:17;11.60;;;5.40;;
70337;SDS011;57757;53.198;19.646;2023-05-23T02:47:45;11.30;;;5.70;;
70337;SDS011;57757;53.198;19.646;2023-05-23T02:50:12;13.10;;;6.00;;
70337;SDS011;57757;53.198;19.646;2023-05-23T02:52:40;12.20;;;5.80;;
70337;SDS011;57757;53.198;19.646;2023-05-23T02:55:08;11.50;;;5.70;;
70337;SDS011;57757;53.198;19.646;2023-05-23T02:57:36;10.60;;;5.60;;
70337;SDS011;57757;53.198;19.646;2023-05-23T03:00:03;12.20;;;5.80;;
70337;SDS011;57757;53.198;19.646;2023-05-23T03:02:31;11.40;;;5.70;;
70337;SDS011;57757;53.198;19.646;2023-05-23T03:05:00;11.10;;;6.00;;
70337;SDS011;57757;53.198;19.646;2023-05-23T03:07:28;11.90;;;6.30;;
70337;SDS011;57757;53.198;19.646;2023-05-23T03:09:56;10.80;;;6.40;;
70337;SDS011;57757;53.198;19.646;2023-05-23T03:12:25;11.30;;;5.80;;
70337;SDS011;57757;53.198;19.646;2023-05-23T03:14:54;12.80;;;6.20;;
70337;SDS011;57757;53.198;19.646;2023-05-23T03:17:23;12.40;;;6.50;;
70337;SDS011;57757;53.198;19.646;2023-05-23T03:19:54;10.40;;;5.60;;
70337;SDS011;57757;53.198;19.646;2023-05-23T03:22:22;13.30;;;6.10;;
70337;SDS011;57757;53.198;19.646;2023-05-23T03:24:49;11.00;;;6.00;;
70337;SDS011;57757;53.198;19.646;2023-05-23T03:27:17;13.10;;;6.30;;
70337;SDS011;57757;53.198;19.646;2023-05-23T03:29:44;11.50;;;5.90;;
70337;SDS011;57757;53.198;19.646;2023-05-23T03:32:14;10.70;;;6.10;;
70337;SDS011;57757;53.198;19.646;2023-05-23T03:34:42;12.20;;;6.40;;
70337;SDS011;57757;53.198;19.646;2023-05-23T03:37:09;11.80;;;6.50;;
70337;SDS011;57757;53.198;19.646;2023-05-23T03:39:37;10.60;;;5.90;;
70337;SDS011;57757;53.198;19.646;2023-05-23T03:42:06;12.10;;;6.40;;
70337;SDS011;57757;53.198;19.646;2023-05-23T03:44:34;14.40;;;6.70;;
70337;SDS011;57757;53.198;19.646;2023-05-23T03:47:01;12.10;;;6.40;;
70337;SDS011;57757;53.198;19.646;2023-05-23T03:49:29;14.00;;;6.70;;
70337;SDS011;57757;53.198;19.646;2023-05-23T03:51:57;12.10;;;5.60;;
70337;SDS011;57757;53.198;19.646;2023-05-23T03:54:24;12.40;;;6.20;;
70337;SDS011;57757;53.198;19.646;2023-05-23T03:56:52;11.20;;;5.90;;
70337;SDS011;57757;53.198;19.646;2023-05-23T03:59:19;11.00;;;5.90;;
70337;SDS011;57757;53.198;19.646;2023-05-23T04:01:47;10.10;;;5.50;;
70337;SDS011;57757;53.198;19.646;2023-05-23T04:04:15;10.20;;;5.40;;
70337;SDS011;57757;53.198;19.646;2023-05-23T04:06:43;11.20;;;4.90;;
70337;SDS011;57757;53.198;19.646;2023-05-23T04:09:11;10.80;;;5.20;;
70337;SDS011;57757;53.198;19.646;2023-05-23T04:11:38;10.40;;;5.40;;
70337;SDS011;57757;53.198;19.646;2023-05-23T04:14:06;12.00;;;5.40;;
70337;SDS011;57757;53.198;19.646;2023-05-23T04:16:36;12.40;;;5.60;;
70337;SDS011;57757;53.198;19.646;2023-05-23T04:19:04;10.30;;;5.10;;
70337;SDS011;57757;53.198;19.646;2023-05-23T04:21:32;10.80;;;5.40;;
70337;SDS011;57757;53.198;19.646;2023-05-23T04:24:01;13.90;;;5.50;;
70337;SDS011;57757;53.198;19.646;2023-05-23T04:26:29;13.60;;;5.50;;
70337;SDS011;57757;53.198;19.646;2023-05-23T04:28:57;10.60;;;5.30;;
70337;SDS011;57757;53.198;19.646;2023-05-23T04:31:25;12.50;;;5.40;;
70337;SDS011;57757;53.198;19.646;2023-05-23T04:33:54;11.00;;;4.90;;
70337;SDS011;57757;53.198;19.646;2023-05-23T04:36:22;10.10;;;5.10;;
70337;SDS011;57757;53.198;19.646;2023-05-23T04:38:49;9.80;;;4.60;;
70337;SDS011;57757;53.198;19.646;2023-05-23T04:41:17;9.80;;;4.70;;
70337;SDS011;57757;53.198;19.646;2023-05-23T04:43:49;10.30;;;5.10;;
70337;SDS011;57757;53.198;19.646;2023-05-23T04:46:20;14.10;;;4.90;;
70337;SDS011;57757;53.198;19.646;2023-05-23T04:48:52;10.20;;;4.20;;
70337;SDS011;57757;53.198;19.646;2023-05-23T04:51:21;9.50;;;4.10;;
70337;SDS011;57757;53.198;19.646;2023-05-23T04:53:49;9.70;;;4.10;;
70337;SDS011;57757;53.198;19.646;2023-05-23T04:56:19;9.40;;;4.10;;
70337;SDS011;57757;53.198;19.646;2023-05-23T04:58:48;10.10;;;4.30;;
70337;SDS011;57757;53.198;19.646;2023-05-23T05:01:16;9.30;;;4.30;;
70337;SDS011;57757;53.198;19.646;2023-05-23T05:03:43;9.60;;;3.70;;
70337;SDS011;57757;53.198;19.646;2023-05-23T05:06:12;10.70;;;4.20;;
70337;SDS011;57757;53.198;19.646;2023-05-23T05:08:40;35.80;;;8.40;;
70337;SDS011;57757;53.198;19.646;2023-05-23T05:11:08;14.40;;;5.50;;
70337;SDS011;57757;53.198;19.646;2023-05-23T05:13:36;9.00;;;4.70;;
70337;SDS011;57757;53.198;19.646;2023-05-23T05:16:04;8.40;;;3.80;;
70337;SDS011;57757;53.198;19.646;2023-05-23T05:18:34;7.60;;;3.30;;
70337;SDS011;57757;53.198;19.646;2023-05-23T05:21:03;10.00;;;3.60;;
70337;SDS011;57757;53.198;19.646;2023-05-23T05:23:30;10.50;;;3.50;;
70337;SDS011;57757;53.198;19.646;2023-05-23T05:25:59;9.80;;;3.80;;
70337;SDS011;57757;53.198;19.646;2023-05-23T05:28:27;9.90;;;3.40;;
70337;SDS011;57757;53.198;19.646;2023-05-23T05:30:54;9.90;;;3.40;;
70337;SDS011;57757;53.198;19.646;2023-05-23T05:33:23;11.30;;;3.20;;
70337;SDS011;57757;53.198;19.646;2023-05-23T05:35:51;7.60;;;3.20;;
70337;SDS011;57757;53.198;19.646;2023-05-23T05:38:18;7.70;;;3.00;;
70337;SDS011;57757;53.198;19.646;2023-05-23T05:40:46;9.70;;;3.10;;
70337;SDS011;57757;53.198;19.646;2023-05-23T05:43:14;8.30;;;3.20;;
70337;SDS011;57757;53.198;19.646;2023-05-23T05:45:41;8.50;;;2.60;;
70337;SDS011;57757;53.198;19.646;2023-05-23T05:48:09;9.60;;;2.60;;
70337;SDS011;57757;53.198;19.646;2023-05-23T05:50:39;7.90;;;2.80;;
70337;SDS011;57757;53.198;19.646;2023-05-23T05:53:09;6.20;;;2.50;;
70337;SDS011;57757;53.198;19.646;2023-05-23T05:55:37;7.00;;;2.50;;
70337;SDS011;57757;53.198;19.646;2023-05-23T05:58:05;7.80;;;2.80;;
70337;SDS011;57757;53.198;19.646;2023-05-23T06:00:32;8.60;;;2.80;;
70337;SDS011;57757;53.198;19.646;2023-05-23T06:03:08;9.30;;;2.60;;
70337;SDS011;57757;53.198;19.646;2023-05-23T06:05:36;7.10;;;2.50;;
70337;SDS011;57757;53.198;19.646;2023-05-23T06:08:05;8.80;;;2.90;;
70337;SDS011;57757;53.198;19.646;2023-05-23T06:10:36;8.50;;;2.50;;
70337;SDS011;57757;53.198;19.646;2023-05-23T06:13:05;7.40;;;2.50;;
70337;SDS011;57757;53.198;19.646;2023-05-23T06:15:35;8.70;;;2.60;;
70337;SDS011;57757;53.198;19.646;2023-05-23T06:18:03;9.70;;;3.00;;
70337;SDS011;57757;53.198;19.646;2023-05-23T06:20:30;8.10;;;3.00;;
70337;SDS011;57757;53.198;19.646;2023-05-23T06:22:58;6.90;;;2.80;;
70337;SDS011;57757;53.198;19.646;2023-05-23T06:25:27;7.90;;;3.10;;
70337;SDS011;57757;53.198;19.646;2023-05-23T06:27:54;8.50;;;2.70;;
70337;SDS011;57757;53.198;19.646;2023-05-23T06:30:22;13.40;;;3.70;;
70337;SDS011;57757;53.198;19.646;2023-05-23T06:32:50;13.70;;;4.20;;
70337;SDS011;57757;53.198;19.646;2023-05-23T06:35:18;18.20;;;4.90;;
70337;SDS011;57757;53.198;19.646;2023-05-23T06:37:46;18.90;;;5.80;;
70337;SDS011;57757;53.198;19.646;2023-05-23T06:40:15;12.00;;;2.90;;
70337;SDS011;57757;53.198;19.646;2023-05-23T06:42:42;7.10;;;2.40;;
70337;SDS011;57757;53.198;19.646;2023-05-23T06:45:10;11.00;;;3.40;;
70337;SDS011;57757;53.198;19.646;2023-05-23T06:47:42;6.30;;;2.50;;
70337;SDS011;57757;53.198;19.646;2023-05-23T06:50:14;8.10;;;2.50;;
70337;SDS011;57757;53.198;19.646;2023-05-23T06:52:42;9.70;;;2.30;;
70337;SDS011;57757;53.198;19.646;2023-05-23T06:55:10;11.50;;;2.80;;
70337;SDS011;57757;53.198;19.646;2023-05-23T06:57:40;8.70;;;2.70;;
70337;SDS011;57757;53.198;19.646;2023-05-23T07:00:08;9.70;;;2.70;;
70337;SDS011;57757;53.198;19.646;2023-05-23T07:02:53;13.00;;;2.60;;
70337;SDS011;57757;53.198;19.646;2023-05-23T07:05:22;9.70;;;2.50;;
70337;SDS011;57757;53.198;19.646;2023-05-23T07:07:49;6.80;;;2.40;;
70337;SDS011;57757;53.198;19.646;2023-05-23T07:10:17;7.60;;;2.20;;
70337;SDS011;57757;53.198;19.646;2023-05-23T07:12:46;11.10;;;2.70;;
70337;SDS011;57757;53.198;19.646;2023-05-23T07:15:14;8.00;;;2.50;;
70337;SDS011;57757;53.198;19.646;2023-05-23T07:17:43;7.80;;;2.70;;
70337;SDS011;57757;53.198;19.646;2023-05-23T07:20:11;8.10;;;2.40;;
70337;SDS011;57757;53.198;19.646;2023-05-23T07:22:38;7.50;;;2.20;;
70337;SDS011;57757;53.198;19.646;2023-05-23T07:25:06;10.80;;;2.80;;
70337;SDS011;57757;53.198;19.646;2023-05-23T07:27:34;8.20;;;2.60;;
70337;SDS011;57757;53.198;19.646;2023-05-23T07:30:02;10.20;;;2.60;;
70337;SDS011;57757;53.198;19.646;2023-05-23T07:32:32;11.40;;;2.90;;
70337;SDS011;57757;53.198;19.646;2023-05-23T07:35:00;8.40;;;2.40;;
70337;SDS011;57757;53.198;19.646;2023-05-23T07:37:28;6.60;;;2.40;;
70337;SDS011;57757;53.198;19.646;2023-05-23T07:39:55;7.70;;;2.60;;
70337;SDS011;57757;53.198;19.646;2023-05-23T07:42:23;19.10;;;3.60;;
70337;SDS011;57757;53.198;19.646;2023-05-23T07:44:51;19.50;;;3.50;;
70337;SDS011;57757;53.198;19.646;2023-05-23T07:47:18;14.60;;;3.40;;
70337;SDS011;57757;53.198;19.646;2023-05-23T07:49:46;8.70;;;3.10;;
70337;SDS011;57757;53.198;19.646;2023-05-23T07:52:13;16.30;;;4.20;;
70337;SDS011;57757;53.198;19.646;2023-05-23T07:54:41;7.70;;;2.50;;
70337;SDS011;57757;53.198;19.646;2023-05-23T07:57:09;14.50;;;3.40;;
70337;SDS011;57757;53.198;19.646;2023-05-23T07:59:37;15.50;;;3.60;;
70337;SDS011;57757;53.198;19.646;2023-05-23T08:02:05;10.10;;;2.80;;
70337;SDS011;57757;53.198;19.646;2023-05-23T08:04:33;10.10;;;2.60;;
70337;SDS011;57757;53.198;19.646;2023-05-23T08:07:01;8.10;;;2.60;;
70337;SDS011;57757;53.198;19.646;2023-05-23T08:09:32;7.80;;;2.40;;
70337;SDS011;57757;53.198;19.646;2023-05-23T08:12:00;8.20;;;2.50;;
70337;SDS011;57757;53.198;19.646;2023-05-23T08:14:28;7.00;;;2.80;;
70337;SDS011;57757;53.198;19.646;2023-05-23T08:17:15;6.10;;;2.40;;
70337;SDS011;57757;53.198;19.646;2023-05-23T08:19:43;7.80;;;2.70;;
70337;SDS011;57757;53.198;19.646;2023-05-23T08:22:11;7.00;;;2.40;;
70337;SDS011;57757;53.198;19.646;2023-05-23T08:24:38;7.50;;;2.50;;
70337;SDS011;57757;53.198;19.646;2023-05-23T08:27:06;7.90;;;2.30;;
70337;SDS011;57757;53.198;19.646;2023-05-23T08:29:34;5.70;;;1.80;;
70337;SDS011;57757;53.198;19.646;2023-05-23T08:32:03;7.10;;;2.50;;
70337;SDS011;57757;53.198;19.646;2023-05-23T08:34:30;9.40;;;2.40;;
70337;SDS011;57757;53.198;19.646;2023-05-23T08:36:59;10.20;;;2.40;;
70337;SDS011;57757;53.198;19.646;2023-05-23T08:39:27;8.40;;;2.70;;
70337;SDS011;57757;53.198;19.646;2023-05-23T08:41:54;6.40;;;2.20;;
70337;SDS011;57757;53.198;19.646;2023-05-23T08:44:22;9.00;;;2.20;;
70337;SDS011;57757;53.198;19.646;2023-05-23T08:46:50;16.20;;;3.40;;
70337;SDS011;57757;53.198;19.646;2023-05-23T08:49:20;23.70;;;4.60;;
70337;SDS011;57757;53.198;19.646;2023-05-23T08:51:49;13.50;;;2.20;;
70337;SDS011;57757;53.198;19.646;2023-05-23T08:54:21;6.30;;;2.00;;
70337;SDS011;57757;53.198;19.646;2023-05-23T08:56:49;37.00;;;4.30;;
70337;SDS011;57757;53.198;19.646;2023-05-23T08:59:18;12.60;;;2.70;;
70337;SDS011;57757;53.198;19.646;2023-05-23T09:01:48;7.90;;;2.60;;
70337;SDS011;57757;53.198;19.646;2023-05-23T09:04:18;7.70;;;2.20;;
70337;SDS011;57757;53.198;19.646;2023-05-23T09:06:46;7.60;;;2.30;;
70337;SDS011;57757;53.198;19.646;2023-05-23T09:09:13;8.90;;;2.30;;
70337;SDS011;57757;53.198;19.646;2023-05-23T09:11:41;12.30;;;2.90;;
70337;SDS011;57757;53.198;19.646;2023-05-23T09:14:12;6.50;;;2.40;;
70337;SDS011;57757;53.198;19.646;2023-05-23T09:16:41;10.80;;;3.00;;
70337;SDS011;57757;53.198;19.646;2023-05-23T09:19:14;8.80;;;2.80;;
70337;SDS011;57757;53.198;19.646;2023-05-23T09:21:45;12.60;;;3.90;;
70337;SDS011;57757;53.198;19.646;2023-05-23T09:24:16;9.30;;;3.30;;
70337;SDS011;57757;53.198;19.646;2023-05-23T09:26:46;13.60;;;2.90;;
70337;SDS011;57757;53.198;19.646;2023-05-23T09:29:17;13.40;;;3.20;;
70337;SDS011;57757;53.198;19.646;2023-05-23T09:31:48;9.00;;;2.70;;
70337;SDS011;57757;53.198;19.646;2023-05-23T09:34:15;7.30;;;2.40;;
70337;SDS011;57757;53.198;19.646;2023-05-23T09:36:43;8.90;;;2.60;;
70337;SDS011;57757;53.198;19.646;2023-05-23T09:39:13;11.40;;;3.90;;
70337;SDS011;57757;53.198;19.646;2023-05-23T09:41:40;9.90;;;2.70;;
70337;SDS011;57757;53.198;19.646;2023-05-23T09:44:08;16.40;;;4.50;;
70337;SDS011;57757;53.198;19.646;2023-05-23T09:46:36;14.40;;;3.40;;
70337;SDS011;57757;53.198;19.646;2023-05-23T09:49:14;32.50;;;7.50;;
70337;SDS011;57757;53.198;19.646;2023-05-23T09:51:55;8.70;;;3.00;;
70337;SDS011;57757;53.198;19.646;2023-05-23T09:54:23;28.80;;;6.60;;
70337;SDS011;57757;53.198;19.646;2023-05-23T09:56:52;9.40;;;3.60;;
70337;SDS011;57757;53.198;19.646;2023-05-23T09:59:23;9.30;;;2.90;;
70337;SDS011;57757;53.198;19.646;2023-05-23T10:01:57;9.90;;;2.90;;
70337;SDS011;57757;53.198;19.646;2023-05-23T10:04:29;10.20;;;3.30;;
70337;SDS011;57757;53.198;19.646;2023-05-23T10:07:03;14.10;;;3.60;;
70337;SDS011;57757;53.198;19.646;2023-05-23T10:09:37;7.30;;;2.60;;
70337;SDS011;57757;53.198;19.646;2023-05-23T10:15:07;6.60;;;2.30;;
70337;SDS011;57757;53.198;19.646;2023-05-23T10:20:21;44.40;;;5.50;;
70337;SDS011;57757;53.198;19.646;2023-05-23T10:22:52;11.60;;;2.90;;
70337;SDS011;57757;53.198;19.646;2023-05-23T10:25:21;8.10;;;2.30;;
70337;SDS011;57757;53.198;19.646;2023-05-23T10:27:49;65.10;;;7.00;;
70337;SDS011;57757;53.198;19.646;2023-05-23T10:30:20;26.60;;;5.40;;
70337;SDS011;57757;53.198;19.646;2023-05-23T10:32:48;7.30;;;2.70;;
70337;SDS011;57757;53.198;19.646;2023-05-23T10:35:19;6.30;;;2.40;;
70337;SDS011;57757;53.198;19.646;2023-05-23T10:40:56;6.70;;;2.30;;
70337;SDS011;57757;53.198;19.646;2023-05-23T10:52:09;6.70;;;2.70;;
70337;SDS011;57757;53.198;19.646;2023-05-23T10:54:45;20.30;;;3.50;;
70337;SDS011;57757;53.198;19.646;2023-05-23T10:57:16;8.10;;;2.90;;
70337;SDS011;57757;53.198;19.646;2023-05-23T10:59:50;7.40;;;2.70;;
70337;SDS011;57757;53.198;19.646;2023-05-23T11:02:23;6.80;;;3.00;;
70337;SDS011;57757;53.198;19.646;2023-05-23T11:10:50;7.10;;;3.20;;
70337;SDS011;57757;53.198;19.646;2023-05-23T11:14:08;7.10;;;2.90;;
70337;SDS011;57757;53.198;19.646;2023-05-23T11:16:38;11.80;;;2.90;;
70337;SDS011;57757;53.198;19.646;2023-05-23T11:22:01;9.30;;;2.60;;
70337;SDS011;57757;53.198;19.646;2023-05-23T11:25:13;10.00;;;3.20;;
70337;SDS011;57757;53.198;19.646;2023-05-23T11:27:40;8.10;;;2.80;;
70337;SDS011;57757;53.198;19.646;2023-05-23T11:30:09;7.30;;;2.50;;
70337;SDS011;57757;53.198;19.646;2023-05-23T11:32:49;7.30;;;2.90;;
70337;SDS011;57757;53.198;19.646;2023-05-23T11:35:19;9.50;;;2.50;;
70337;SDS011;57757;53.198;19.646;2023-05-23T11:37:47;6.00;;;2.50;;
70337;SDS011;57757;53.198;19.646;2023-05-23T11:43:06;7.20;;;2.60;;
70337;SDS011;57757;53.198;19.646;2023-05-23T11:45:35;7.20;;;3.00;;
70337;SDS011;57757;53.198;19.646;2023-05-23T11:48:05;7.40;;;2.80;;
70337;SDS011;57757;53.198;19.646;2023-05-23T11:50:33;13.60;;;5.20;;
70337;SDS011;57757;53.198;19.646;2023-05-23T11:53:09;10.30;;;3.70;;
70337;SDS011;57757;53.198;19.646;2023-05-23T11:55:46;13.40;;;3.10;;
70337;SDS011;57757;53.198;19.646;2023-05-23T11:58:15;14.30;;;3.00;;
70337;SDS011;57757;53.198;19.646;2023-05-23T12:00:43;10.70;;;3.10;;
70337;SDS011;57757;53.198;19.646;2023-05-23T12:03:12;8.00;;;3.00;;
70337;SDS011;57757;53.198;19.646;2023-05-23T12:05:41;9.00;;;3.50;;
70337;SDS011;57757;53.198;19.646;2023-05-23T12:08:11;10.10;;;3.30;;
70337;SDS011;57757;53.198;19.646;2023-05-23T12:10:51;8.30;;;3.10;;
70337;SDS011;57757;53.198;19.646;2023-05-23T12:13:22;23.50;;;4.20;;
70337;SDS011;57757;53.198;19.646;2023-05-23T12:15:56;7.30;;;3.10;;
70337;SDS011;57757;53.198;19.646;2023-05-23T12:18:29;8.40;;;3.10;;
70337;SDS011;57757;53.198;19.646;2023-05-23T12:21:02;8.30;;;3.40;;
70337;SDS011;57757;53.198;19.646;2023-05-23T12:23:33;14.40;;;4.50;;
70337;SDS011;57757;53.198;19.646;2023-05-23T12:26:04;11.50;;;3.50;;
70337;SDS011;57757;53.198;19.646;2023-05-23T12:28:34;10.20;;;4.50;;
70337;SDS011;57757;53.198;19.646;2023-05-23T12:33:40;10.40;;;3.60;;
70337;SDS011;57757;53.198;19.646;2023-05-23T12:36:11;8.60;;;3.00;;
70337;SDS011;57757;53.198;19.646;2023-05-23T12:38:40;8.30;;;3.30;;
70337;SDS011;57757;53.198;19.646;2023-05-23T12:41:14;12.10;;;4.20;;
70337;SDS011;57757;53.198;19.646;2023-05-23T12:43:50;9.40;;;3.90;;
70337;SDS011;57757;53.198;19.646;2023-05-23T12:46:22;15.00;;;4.00;;
70337;SDS011;57757;53.198;19.646;2023-05-23T12:48:52;21.10;;;4.70;;
70337;SDS011;57757;53.198;19.646;2023-05-23T12:51:20;13.00;;;4.20;;
70337;SDS011;57757;53.198;19.646;2023-05-23T12:53:48;12.10;;;5.50;;
70337;SDS011;57757;53.198;19.646;2023-05-23T12:56:15;13.60;;;4.20;;
70337;SDS011;57757;53.198;19.646;2023-05-23T12:58:43;9.40;;;3.60;;
70337;SDS011;57757;53.198;19.646;2023-05-23T13:01:11;8.30;;;3.30;;
70337;SDS011;57757;53.198;19.646;2023-05-23T13:03:39;9.60;;;3.60;;
70337;SDS011;57757;53.198;19.646;2023-05-23T13:06:07;10.60;;;3.60;;
70337;SDS011;57757;53.198;19.646;2023-05-23T13:08:34;8.80;;;3.70;;
70337;SDS011;57757;53.198;19.646;2023-05-23T13:11:02;7.30;;;3.50;;
70337;SDS011;57757;53.198;19.646;2023-05-23T13:13:30;7.90;;;3.30;;
70337;SDS011;57757;53.198;19.646;2023-05-23T13:15:59;9.10;;;3.50;;
70337;SDS011;57757;53.198;19.646;2023-05-23T13:18:28;12.80;;;3.40;;
70337;SDS011;57757;53.198;19.646;2023-05-23T13:20:55;9.40;;;3.00;;
70337;SDS011;57757;53.198;19.646;2023-05-23T13:23:23;10.20;;;4.50;;
70337;SDS011;57757;53.198;19.646;2023-05-23T13:25:52;9.90;;;3.10;;
70337;SDS011;57757;53.198;19.646;2023-05-23T13:28:20;9.30;;;3.10;;
70337;SDS011;57757;53.198;19.646;2023-05-23T13:30:47;13.70;;;3.30;;
70337;SDS011;57757;53.198;19.646;2023-05-23T13:33:16;7.80;;;3.50;;
70337;SDS011;57757;53.198;19.646;2023-05-23T13:35:43;7.60;;;3.10;;
70337;SDS011;57757;53.198;19.646;2023-05-23T13:38:11;6.40;;;3.10;;
70337;SDS011;57757;53.198;19.646;2023-05-23T13:40:39;9.80;;;3.00;;
70337;SDS011;57757;53.198;19.646;2023-05-23T13:43:07;9.80;;;3.60;;
70337;SDS011;57757;53.198;19.646;2023-05-23T13:45:35;9.10;;;3.00;;
70337;SDS011;57757;53.198;19.646;2023-05-23T13:48:03;7.40;;;3.00;;
70337;SDS011;57757;53.198;19.646;2023-05-23T13:50:31;11.50;;;3.10;;
70337;SDS011;57757;53.198;19.646;2023-05-23T13:52:59;7.10;;;3.40;;
70337;SDS011;57757;53.198;19.646;2023-05-23T13:55:27;8.00;;;2.90;;
70337;SDS011;57757;53.198;19.646;2023-05-23T13:57:55;25.00;;;11.50;;
70337;SDS011;57757;53.198;19.646;2023-05-23T14:00:22;10.00;;;3.30;;
70337;SDS011;57757;53.198;19.646;2023-05-23T14:02:50;9.90;;;3.40;;
70337;SDS011;57757;53.198;19.646;2023-05-23T14:05:18;9.80;;;3.30;;
70337;SDS011;57757;53.198;19.646;2023-05-23T14:07:46;7.40;;;2.90;;
70337;SDS011;57757;53.198;19.646;2023-05-23T14:10:14;10.90;;;3.60;;
70337;SDS011;57757;53.198;19.646;2023-05-23T14:12:43;10.70;;;5.00;;
70337;SDS011;57757;53.198;19.646;2023-05-23T14:15:11;12.90;;;5.10;;
70337;SDS011;57757;53.198;19.646;2023-05-23T14:17:40;10.00;;;3.40;;
70337;SDS011;57757;53.198;19.646;2023-05-23T14:20:08;9.30;;;2.80;;
70337;SDS011;57757;53.198;19.646;2023-05-23T14:22:36;7.70;;;3.40;;
70337;SDS011;57757;53.198;19.646;2023-05-23T14:25:04;7.50;;;3.00;;
70337;SDS011;57757;53.198;19.646;2023-05-23T14:27:32;13.80;;;3.70;;
70337;SDS011;57757;53.198;19.646;2023-05-23T14:30:01;6.70;;;2.90;;
70337;SDS011;57757;53.198;19.646;2023-05-23T14:32:29;7.20;;;3.10;;
70337;SDS011;57757;53.198;19.646;2023-05-23T14:35:31;7.60;;;3.10;;
70337;SDS011;57757;53.198;19.646;2023-05-23T14:38:24;7.20;;;3.10;;
70337;SDS011;57757;53.198;19.646;2023-05-23T14:40:53;8.00;;;2.80;;
70337;SDS011;57757;53.198;19.646;2023-05-23T14:43:21;8.90;;;3.10;;
70337;SDS011;57757;53.198;19.646;2023-05-23T14:45:49;10.60;;;2.70;;
70337;SDS011;57757;53.198;19.646;2023-05-23T14:48:16;8.10;;;2.60;;
70337;SDS011;57757;53.198;19.646;2023-05-23T14:50:44;8.40;;;2.80;;
70337;SDS011;57757;53.198;19.646;2023-05-23T14:53:14;10.30;;;3.20;;
70337;SDS011;57757;53.198;19.646;2023-05-23T14:55:42;8.40;;;2.50;;
70337;SDS011;57757;53.198;19.646;2023-05-23T14:58:10;6.20;;;2.50;;
70337;SDS011;57757;53.198;19.646;2023-05-23T15:00:37;6.10;;;2.60;;
70337;SDS011;57757;53.198;19.646;2023-05-23T15:03:08;7.70;;;2.90;;
70337;SDS011;57757;53.198;19.646;2023-05-23T15:05:37;7.90;;;3.10;;
70337;SDS011;57757;53.198;19.646;2023-05-23T15:08:04;6.40;;;2.70;;
70337;SDS011;57757;53.198;19.646;2023-05-23T15:10:32;11.80;;;2.70;;
70337;SDS011;57757;53.198;19.646;2023-05-23T15:13:00;8.70;;;3.00;;
70337;SDS011;57757;53.198;19.646;2023-05-23T15:15:30;6.40;;;2.90;;
70337;SDS011;57757;53.198;19.646;2023-05-23T15:18:04;6.20;;;2.70;;
70337;SDS011;57757;53.198;19.646;2023-05-23T15:20:34;6.80;;;2.40;;